Tramper — PHAA — position and weather

sailwx.info

Track history (hours):
 
Tides and Currents Weather Stations Pressure Air Temp Water Temp Dewpoint Dewpoint Depression Visibility Wind Speed Wind Dir Waves Ship Positions

Tramper

Last reported at 2018-Apr-24 22:28 UTC. Time now 2018-Apr-24 22:37 UTC.
Position N 53°30' E 008°35'.

Length 101 m; beam 20 m.

Type: Cargo ship. MMSI: 245867000.

Date/timePositionNaut miles runAvg speedWind from/ knotsBaromVisibWave heightAir tempDewpointWater temp
2018-Apr-24 22:28N 53°30' E 008°35'0 0.0
2018-Apr-24 21:58N 53°30' E 008°35'0 0.0
2018-Apr-24 21:25N 53°30' E 008°35'0 0.0
2018-Apr-24 20:58N 53°30' E 008°35'0 0.0
2018-Apr-24 20:22N 53°30' E 008°35'0 0.0
2018-Apr-24 19:52N 53°30' E 008°35'0 0.0
2018-Apr-24 19:28N 53°30' E 008°35'0 0.0
2018-Apr-24 18:58N 53°30' E 008°35'0 0.0
2018-Apr-24 18:28N 53°30' E 008°35'0 0.0
2018-Apr-24 17:55N 53°30' E 008°35'0 0.0
2018-Apr-24 17:28N 53°30' E 008°35'0 0.0
2018-Apr-24 16:58N 53°30' E 008°35'0 0.0
2018-Apr-24 16:28N 53°30' E 008°35'0 0.0
2018-Apr-24 15:58N 53°30' E 008°35'0 0.0
2018-Apr-24 15:28N 53°30' E 008°35'0 0.0
2018-Apr-24 14:58N 53°30' E 008°35'0 0.0
2018-Apr-24 14:28N 53°30' E 008°35'0 0.0
2018-Apr-24 13:52N 53°30' E 008°35'0 0.0
2018-Apr-24 13:28N 53°30' E 008°35'0 0.0
2018-Apr-24 12:58N 53°30' E 008°35'0 0.0
2018-Apr-24 12:28N 53°30' E 008°35'0 0.0
2018-Apr-24 11:58N 53°30' E 008°35'0 0.0
2018-Apr-24 11:28N 53°30' E 008°35'0 0.0
2018-Apr-24 10:58N 53°30' E 008°35'0 0.0
2018-Apr-24 10:28N 53°30' E 008°35'0 0.0
2018-Apr-24 09:58N 53°30' E 008°35'0 0.0
2018-Apr-24 09:28N 53°30' E 008°35'0 0.0
2018-Apr-24 08:58N 53°30' E 008°35'0 0.0
2018-Apr-24 08:28N 53°30' E 008°35'0 0.0
2018-Apr-24 07:58N 53°30' E 008°35'0 0.0
2018-Apr-24 07:28N 53°30' E 008°35'0 0.0
2018-Apr-24 06:58N 53°30' E 008°35'0 0.0
2018-Apr-24 06:30N 53°30' E 008°35'0 0.2
2018-Apr-24 06:01N 53°30' E 008°35'1 2.9
2018-Apr-24 05:30N 53°32' E 008°35'0 0.3
2018-Apr-24 05:00N 53°32' E 008°35'0 0.3
2018-Apr-24 04:31N 53°32' E 008°35'2 4.9
2018-Apr-24 04:00N 53°34' E 008°32'612.3
2018-Apr-24 03:30N 53°39' E 008°25'713.5
2018-Apr-24 03:00N 53°43' E 008°17'713.6
2018-Apr-24 02:30N 53°48' E 008°08'613.1
2018-Apr-24 02:00N 53°51' E 007°59'3811.9
2018-Apr-23 22:49N 53°49' E 006°55'1611.3
2018-Apr-23 21:25N 53°46' E 006°29'3211.2
2018-Apr-23 18:35N 53°36' E 005°38'111.3
2018-Apr-23 18:30N 53°36' E 005°36'611.1
2018-Apr-23 18:00N 53°34' E 005°28'610.8
2018-Apr-23 17:25N 53°32' E 005°17'410.8
2018-Apr-23 17:00N 53°31' E 005°10'611.1
2018-Apr-23 16:30N 53°29' E 005°01'511.1
2018-Apr-23 16:00N 53°27' E 004°53'611.0
2018-Apr-23 15:30N 53°24' E 004°45'510.7
2018-Apr-23 15:00N 53°20' E 004°39'611.2
2018-Apr-23 14:28N 53°15' E 004°34'511.2
2018-Apr-23 13:59N 53°10' E 004°30'511.4
2018-Apr-23 13:30N 53°05' E 004°26'611.1
2018-Apr-23 13:00N 53°00' E 004°22'611.5
2018-Apr-23 12:30N 52°55' E 004°17'511.0
2018-Apr-23 12:00N 52°50' E 004°13'710.6
2018-Apr-23 11:22N 52°45' E 004°06'710.6
2018-Apr-23 10:44N 52°40' E 003°58'1310.6
2018-Apr-23 09:30N 52°31' E 003°42'710.8
2018-Apr-23 08:49N 52°26' E 003°34'410.7
2018-Apr-23 08:29N 52°23' E 003°30'510.9
2018-Apr-23 08:00N 52°20' E 003°24'611.7
2018-Apr-23 07:28N 52°15' E 003°17'1212.5
2018-Apr-23 06:28N 52°05' E 003°04'913.3
2018-Apr-23 05:48N 51°59' E 002°55'513.3
2018-Apr-23 05:28N 51°55' E 002°50'714.5
2018-Apr-23 04:59N 51°50' E 002°43'714.4
2018-Apr-23 04:30N 51°45' E 002°35'714.2
2018-Apr-23 04:00N 51°39' E 002°28'713.9
2018-Apr-23 03:30N 51°34' E 002°21'713.7
2018-Apr-23 03:00N 51°29' E 002°14'713.2
2018-Apr-23 02:30N 51°24' E 002°07'713.2
2018-Apr-23 02:00N 51°17' E 002°07'713.0
2018-Apr-23 01:30N 51°12' E 001°60'713.7
2018-Apr-23 01:00N 51°09' E 001°50'612.9
2018-Apr-23 00:30N 51°05' E 001°42'612.6
2018-Apr-23 00:00N 51°01' E 001°34'612.9
2018-Apr-22 23:31N 50°57' E 001°27'612.7
2018-Apr-22 23:00N 50°50' E 001°24'712.5
2018-Apr-22 22:29N 50°44' E 001°22'612.3
2018-Apr-22 21:57N 50°39' E 001°15'613.1
2018-Apr-22 21:30N 50°35' E 001°08'713.1
2018-Apr-22 20:59N 50°31' E 000°60'612.9
2018-Apr-22 20:30N 50°29' E 000°50'713.1
2018-Apr-22 19:58N 50°27' E 000°40'613.1
2018-Apr-22 19:30N 50°25' E 000°31'613.1
2018-Apr-22 19:00N 50°23' E 000°21'612.9
2018-Apr-22 18:31N 50°21' E 000°11'713.1
2018-Apr-22 18:01N 50°20' E 000°01'713.2
2018-Apr-22 17:30N 50°20' W 000°09'713.2
2018-Apr-22 17:00N 50°20' W 000°19'713.2
2018-Apr-22 16:30N 50°20' W 000°30'713.0
2018-Apr-22 16:00N 50°23' W 000°39'714.2
2018-Apr-22 15:30N 50°27' W 000°48'714.4
2018-Apr-22 15:00N 50°28' W 000°59'815.6
2018-Apr-22 14:31N 50°29' W 001°11'816.3
2018-Apr-22 14:01N 50°32' W 001°24'816.5
2018-Apr-22 13:30N 50°34' W 001°36'815.9
2018-Apr-22 13:01N 50°36' W 001°48'612.1
2018-Apr-22 12:30N 50°40' W 001°55'4 7.1
2018-Apr-22 11:59N 50°42' W 001°59'0 0.2
2018-Apr-22 11:29N 50°42' W 001°59'0 0.0
2018-Apr-22 10:59N 50°42' W 001°59'0 0.0
2018-Apr-22 10:29N 50°42' W 001°59'0 0.0
2018-Apr-22 09:59N 50°42' W 001°59'0 0.0
2018-Apr-22 09:29N 50°42' W 001°59'0 0.0
2018-Apr-22 08:59N 50°42' W 001°59'0 0.0
2018-Apr-22 08:29N 50°42' W 001°59'0 0.0
2018-Apr-22 07:59N 50°42' W 001°59'0 0.0
2018-Apr-22 07:29N 50°42' W 001°59'0 0.0
2018-Apr-22 06:59N 50°42' W 001°59'0 0.0
2018-Apr-22 06:29N 50°42' W 001°59'0 0.0
2018-Apr-22 05:59N 50°42' W 001°59'0 0.0
2018-Apr-22 05:26N 50°42' W 001°59'0 0.0
2018-Apr-22 04:59N 50°42' W 001°59'0 0.0
2018-Apr-22 04:29N 50°42' W 001°59'0 0.0
2018-Apr-22 03:59N 50°42' W 001°59'0 0.0
2018-Apr-22 03:29N 50°42' W 001°59'0 0.0
2018-Apr-22 02:59N 50°42' W 001°59'0 0.0
2018-Apr-22 02:29N 50°42' W 001°59'0 0.0
2018-Apr-22 01:53N 50°42' W 001°59'0 0.0
2018-Apr-22 01:17N 50°42' W 001°59'0 0.0
2018-Apr-22 00:56N 50°42' W 001°59'0 0.0
2018-Apr-22 00:29N 50°42' W 001°59'0 0.0
2018-Apr-21 23:59N 50°42' W 001°59'0 0.0
2018-Apr-21 23:29N 50°42' W 001°59'0 0.0
2018-Apr-21 22:59N 50°42' W 001°59'0 0.0
2018-Apr-21 22:26N 50°42' W 001°59'0 0.0
2018-Apr-21 21:59N 50°42' W 001°59'0 0.0
2018-Apr-21 21:29N 50°42' W 001°59'0 0.0
2018-Apr-21 20:59N 50°42' W 001°59'0 0.0
2018-Apr-21 20:26N 50°42' W 001°59'0 0.0
2018-Apr-21 19:56N 50°42' W 001°59'0 0.0
2018-Apr-21 19:29N 50°42' W 001°59'0 0.0
2018-Apr-21 18:59N 50°42' W 001°59'0 0.0
2018-Apr-21 18:29N 50°42' W 001°59'0 0.0
2018-Apr-21 17:59N 50°42' W 001°59'3 6.1
2018-Apr-21 17:30N 50°40' W 001°56'510.2
2018-Apr-21 17:00N 50°35' W 001°54'611.7
2018-Apr-21 16:31N 50°32' W 002°01'612.7
2018-Apr-21 16:00N 50°28' W 002°09'713.6
2018-Apr-21 15:30N 50°24' W 002°18'714.5
2018-Apr-21 15:00N 50°20' W 002°28'715.1
2018-Apr-21 14:31N 50°16' W 002°38'815.3
2018-Apr-21 14:01N 50°12' W 002°48'815.4
2018-Apr-21 13:30N 50°09' W 002°59'815.6
2018-Apr-21 13:00N 50°05' W 003°09'815.9
2018-Apr-21 12:31N 50°01' W 003°20'815.9
2018-Apr-21 12:00N 49°57' W 003°31'815.9
2018-Apr-21 11:30N 49°53' W 003°42'815.8
2018-Apr-21 11:00N 49°49' W 003°52'1115.8
2018-Apr-21 10:17N 49°43' W 004°07'516.0
2018-Apr-21 09:59N 49°41' W 004°14'1416.2
2018-Apr-21 09:07N 49°34' W 004°33'1416.4
2018-Apr-21 08:17N 49°27' W 004°51'516.0
2018-Apr-21 07:59N 49°24' W 004°57'1116.1
2018-Apr-21 07:19N 49°18' W 005°10'616.1
2018-Apr-21 06:58N 49°15' W 005°18'816.0
2018-Apr-21 06:30N 49°11' W 005°28'815.9
2018-Apr-21 05:59N 49°08' W 005°39'3215.5
2018-Apr-21 03:53N 48°49' W 006°19'2714.4
2018-Apr-21 01:59N 48°31' W 006°50'1513.7
2018-Apr-21 00:53N 48°20' W 007°07'1313.6
2018-Apr-20 23:58N 48°12' W 007°20'1313.6
2018-Apr-20 22:59N 48°03' W 007°35'1413.9
2018-Apr-20 21:58N 47°53' W 007°50'10 2.9
2018-Apr-20 18:38N 47°47' W 008°02'  
2018-Apr-18 02:41N 36°57' W 023°33'316.0
2018-Apr-18 02:31N 36°55' W 023°36'815.7
2018-Apr-18 02:00N 36°49' W 023°42'815.5
2018-Apr-18 01:30N 36°44' W 023°49'815.4
2018-Apr-18 01:00N 36°38' W 023°56'815.1
2018-Apr-18 00:30N 36°33' W 024°02'815.1
2018-Apr-18 00:00N 36°27' W 024°09'815.1
2018-Apr-17 23:31N 36°22' W 024°16'814.9
2018-Apr-17 23:00N 36°17' W 024°22'815.4
2018-Apr-17 22:30N 36°11' W 024°29'815.4
2018-Apr-17 22:00N 36°06' W 024°36'815.4
2018-Apr-17 21:30N 36°01' W 024°43'815.7
2018-Apr-17 21:00N 35°55' W 024°50'815.7
2018-Apr-17 20:30N 35°50' W 024°57'815.7
2018-Apr-17 20:00N 35°45' W 025°04'816.1
2018-Apr-17 19:30N 35°39' W 025°11'816.2
2018-Apr-17 19:00N 35°33' W 025°18'  
Track history (hours):
 
Tides and Currents Weather Stations Pressure Air Temp Water Temp Dewpoint Dewpoint Depression Visibility Wind Speed Wind Dir Waves Ship Positions

Tramper

Last reported at 2018-Apr-24 22:28 UTC. Time now 2018-Apr-24 22:37 UTC.
Position N 53°30' E 008°35'.

Length 101 m; beam 20 m.

Type: Cargo ship. MMSI: 245867000.

Date/timePositionNaut miles runAvg speedWind from/ knotsBaromVisibWave heightAir tempDewpointWater temp
2018-Apr-24 22:28N 53°30' E 008°35'0 0.0
2018-Apr-24 21:58N 53°30' E 008°35'0 0.0
2018-Apr-24 21:25N 53°30' E 008°35'0 0.0
2018-Apr-24 20:58N 53°30' E 008°35'0 0.0
2018-Apr-24 20:22N 53°30' E 008°35'0 0.0
2018-Apr-24 19:52N 53°30' E 008°35'0 0.0
2018-Apr-24 19:28N 53°30' E 008°35'0 0.0
2018-Apr-24 18:58N 53°30' E 008°35'0 0.0
2018-Apr-24 18:28N 53°30' E 008°35'0 0.0
2018-Apr-24 17:55N 53°30' E 008°35'0 0.0
2018-Apr-24 17:28N 53°30' E 008°35'0 0.0
2018-Apr-24 16:58N 53°30' E 008°35'0 0.0
2018-Apr-24 16:28N 53°30' E 008°35'0 0.0
2018-Apr-24 15:58N 53°30' E 008°35'0 0.0
2018-Apr-24 15:28N 53°30' E 008°35'0 0.0
2018-Apr-24 14:58N 53°30' E 008°35'0 0.0
2018-Apr-24 14:28N 53°30' E 008°35'0 0.0
2018-Apr-24 13:52N 53°30' E 008°35'0 0.0
2018-Apr-24 13:28N 53°30' E 008°35'0 0.0
2018-Apr-24 12:58N 53°30' E 008°35'0 0.0
2018-Apr-24 12:28N 53°30' E 008°35'0 0.0
2018-Apr-24 11:58N 53°30' E 008°35'0 0.0
2018-Apr-24 11:28N 53°30' E 008°35'0 0.0
2018-Apr-24 10:58N 53°30' E 008°35'0 0.0
2018-Apr-24 10:28N 53°30' E 008°35'0 0.0
2018-Apr-24 09:58N 53°30' E 008°35'0 0.0
2018-Apr-24 09:28N 53°30' E 008°35'0 0.0
2018-Apr-24 08:58N 53°30' E 008°35'0 0.0
2018-Apr-24 08:28N 53°30' E 008°35'0 0.0
2018-Apr-24 07:58N 53°30' E 008°35'0 0.0
2018-Apr-24 07:28N 53°30' E 008°35'0 0.0
2018-Apr-24 06:58N 53°30' E 008°35'0 0.0
2018-Apr-24 06:30N 53°30' E 008°35'0 0.2
2018-Apr-24 06:01N 53°30' E 008°35'1 2.9
2018-Apr-24 05:30N 53°32' E 008°35'0 0.3
2018-Apr-24 05:00N 53°32' E 008°35'0 0.3
2018-Apr-24 04:31N 53°32' E 008°35'2 4.9
2018-Apr-24 04:00N 53°34' E 008°32'612.3
2018-Apr-24 03:30N 53°39' E 008°25'713.5
2018-Apr-24 03:00N 53°43' E 008°17'713.6
2018-Apr-24 02:30N 53°48' E 008°08'613.1
2018-Apr-24 02:00N 53°51' E 007°59'3811.9
2018-Apr-23 22:49N 53°49' E 006°55'1611.3
2018-Apr-23 21:25N 53°46' E 006°29'3211.2
2018-Apr-23 18:35N 53°36' E 005°38'111.3
2018-Apr-23 18:30N 53°36' E 005°36'611.1
2018-Apr-23 18:00N 53°34' E 005°28'610.8
2018-Apr-23 17:25N 53°32' E 005°17'410.8
2018-Apr-23 17:00N 53°31' E 005°10'611.1
2018-Apr-23 16:30N 53°29' E 005°01'511.1
2018-Apr-23 16:00N 53°27' E 004°53'611.0
2018-Apr-23 15:30N 53°24' E 004°45'510.7
2018-Apr-23 15:00N 53°20' E 004°39'611.2
2018-Apr-23 14:28N 53°15' E 004°34'511.2
2018-Apr-23 13:59N 53°10' E 004°30'511.4
2018-Apr-23 13:30N 53°05' E 004°26'611.1
2018-Apr-23 13:00N 53°00' E 004°22'611.5
2018-Apr-23 12:30N 52°55' E 004°17'511.0
2018-Apr-23 12:00N 52°50' E 004°13'710.6
2018-Apr-23 11:22N 52°45' E 004°06'710.6
2018-Apr-23 10:44N 52°40' E 003°58'1310.6
2018-Apr-23 09:30N 52°31' E 003°42'710.8
2018-Apr-23 08:49N 52°26' E 003°34'410.7
2018-Apr-23 08:29N 52°23' E 003°30'510.9
2018-Apr-23 08:00N 52°20' E 003°24'611.7
2018-Apr-23 07:28N 52°15' E 003°17'1212.5
2018-Apr-23 06:28N 52°05' E 003°04'913.3
2018-Apr-23 05:48N 51°59' E 002°55'513.3
2018-Apr-23 05:28N 51°55' E 002°50'714.5
2018-Apr-23 04:59N 51°50' E 002°43'714.4
2018-Apr-23 04:30N 51°45' E 002°35'714.2
2018-Apr-23 04:00N 51°39' E 002°28'713.9
2018-Apr-23 03:30N 51°34' E 002°21'713.7
2018-Apr-23 03:00N 51°29' E 002°14'713.2
2018-Apr-23 02:30N 51°24' E 002°07'713.2
2018-Apr-23 02:00N 51°17' E 002°07'713.0
2018-Apr-23 01:30N 51°12' E 001°60'713.7
2018-Apr-23 01:00N 51°09' E 001°50'612.9
2018-Apr-23 00:30N 51°05' E 001°42'612.6
2018-Apr-23 00:00N 51°01' E 001°34'612.9
2018-Apr-22 23:31N 50°57' E 001°27'612.7
2018-Apr-22 23:00N 50°50' E 001°24'712.5
2018-Apr-22 22:29N 50°44' E 001°22'612.3
2018-Apr-22 21:57N 50°39' E 001°15'613.1
2018-Apr-22 21:30N 50°35' E 001°08'713.1
2018-Apr-22 20:59N 50°31' E 000°60'612.9
2018-Apr-22 20:30N 50°29' E 000°50'713.1
2018-Apr-22 19:58N 50°27' E 000°40'613.1
2018-Apr-22 19:30N 50°25' E 000°31'613.1
2018-Apr-22 19:00N 50°23' E 000°21'612.9
2018-Apr-22 18:31N 50°21' E 000°11'713.1
2018-Apr-22 18:01N 50°20' E 000°01'713.2
2018-Apr-22 17:30N 50°20' W 000°09'713.2
2018-Apr-22 17:00N 50°20' W 000°19'713.2
2018-Apr-22 16:30N 50°20' W 000°30'713.0
2018-Apr-22 16:00N 50°23' W 000°39'714.2
2018-Apr-22 15:30N 50°27' W 000°48'714.4
2018-Apr-22 15:00N 50°28' W 000°59'815.6
2018-Apr-22 14:31N 50°29' W 001°11'816.3
2018-Apr-22 14:01N 50°32' W 001°24'816.5
2018-Apr-22 13:30N 50°34' W 001°36'815.9
2018-Apr-22 13:01N 50°36' W 001°48'612.1
2018-Apr-22 12:30N 50°40' W 001°55'4 7.1
2018-Apr-22 11:59N 50°42' W 001°59'0 0.2
2018-Apr-22 11:29N 50°42' W 001°59'0 0.0
2018-Apr-22 10:59N 50°42' W 001°59'0 0.0
2018-Apr-22 10:29N 50°42' W 001°59'0 0.0
2018-Apr-22 09:59N 50°42' W 001°59'0 0.0
2018-Apr-22 09:29N 50°42' W 001°59'0 0.0
2018-Apr-22 08:59N 50°42' W 001°59'0 0.0
2018-Apr-22 08:29N 50°42' W 001°59'0 0.0
2018-Apr-22 07:59N 50°42' W 001°59'0 0.0
2018-Apr-22 07:29N 50°42' W 001°59'0 0.0
2018-Apr-22 06:59N 50°42' W 001°59'0 0.0
2018-Apr-22 06:29N 50°42' W 001°59'0 0.0
2018-Apr-22 05:59N 50°42' W 001°59'0 0.0
2018-Apr-22 05:26N 50°42' W 001°59'0 0.0
2018-Apr-22 04:59N 50°42' W 001°59'0 0.0
2018-Apr-22 04:29N 50°42' W 001°59'0 0.0
2018-Apr-22 03:59N 50°42' W 001°59'0 0.0
2018-Apr-22 03:29N 50°42' W 001°59'0 0.0
2018-Apr-22 02:59N 50°42' W 001°59'0 0.0
2018-Apr-22 02:29N 50°42' W 001°59'0 0.0
2018-Apr-22 01:53N 50°42' W 001°59'0 0.0
2018-Apr-22 01:17N 50°42' W 001°59'0 0.0
2018-Apr-22 00:56N 50°42' W 001°59'0 0.0
2018-Apr-22 00:29N 50°42' W 001°59'0 0.0
2018-Apr-21 23:59N 50°42' W 001°59'0 0.0
2018-Apr-21 23:29N 50°42' W 001°59'0 0.0
2018-Apr-21 22:59N 50°42' W 001°59'0 0.0
2018-Apr-21 22:26N 50°42' W 001°59'0 0.0
2018-Apr-21 21:59N 50°42' W 001°59'0 0.0
2018-Apr-21 21:29N 50°42' W 001°59'0 0.0
2018-Apr-21 20:59N 50°42' W 001°59'0 0.0
2018-Apr-21 20:26N 50°42' W 001°59'0 0.0
2018-Apr-21 19:56N 50°42' W 001°59'0 0.0
2018-Apr-21 19:29N 50°42' W 001°59'0 0.0
2018-Apr-21 18:59N 50°42' W 001°59'0 0.0
2018-Apr-21 18:29N 50°42' W 001°59'0 0.0
2018-Apr-21 17:59N 50°42' W 001°59'3 6.1
2018-Apr-21 17:30N 50°40' W 001°56'510.2
2018-Apr-21 17:00N 50°35' W 001°54'611.7
2018-Apr-21 16:31N 50°32' W 002°01'612.7
2018-Apr-21 16:00N 50°28' W 002°09'713.6
2018-Apr-21 15:30N 50°24' W 002°18'714.5
2018-Apr-21 15:00N 50°20' W 002°28'715.1
2018-Apr-21 14:31N 50°16' W 002°38'815.3
2018-Apr-21 14:01N 50°12' W 002°48'815.4
2018-Apr-21 13:30N 50°09' W 002°59'815.6
2018-Apr-21 13:00N 50°05' W 003°09'815.9
2018-Apr-21 12:31N 50°01' W 003°20'815.9
2018-Apr-21 12:00N 49°57' W 003°31'815.9
2018-Apr-21 11:30N 49°53' W 003°42'815.8
2018-Apr-21 11:00N 49°49' W 003°52'1115.8
2018-Apr-21 10:17N 49°43' W 004°07'516.0
2018-Apr-21 09:59N 49°41' W 004°14'1416.2
2018-Apr-21 09:07N 49°34' W 004°33'1416.4
2018-Apr-21 08:17N 49°27' W 004°51'516.0
2018-Apr-21 07:59N 49°24' W 004°57'1116.1
2018-Apr-21 07:19N 49°18' W 005°10'616.1
2018-Apr-21 06:58N 49°15' W 005°18'816.0
2018-Apr-21 06:30N 49°11' W 005°28'815.9
2018-Apr-21 05:59N 49°08' W 005°39'3215.5
2018-Apr-21 03:53N 48°49' W 006°19'2714.4
2018-Apr-21 01:59N 48°31' W 006°50'1513.7
2018-Apr-21 00:53N 48°20' W 007°07'1313.6
2018-Apr-20 23:58N 48°12' W 007°20'1313.6
2018-Apr-20 22:59N 48°03' W 007°35'1413.9
2018-Apr-20 21:58N 47°53' W 007°50'10 2.9
2018-Apr-20 18:38N 47°47' W 008°02'  
2018-Apr-18 02:41N 36°57' W 023°33'316.0
2018-Apr-18 02:31N 36°55' W 023°36'815.7
2018-Apr-18 02:00N 36°49' W 023°42'815.5
2018-Apr-18 01:30N 36°44' W 023°49'815.4
2018-Apr-18 01:00N 36°38' W 023°56'815.1
2018-Apr-18 00:30N 36°33' W 024°02'815.1
2018-Apr-18 00:00N 36°27' W 024°09'815.1
2018-Apr-17 23:31N 36°22' W 024°16'814.9
2018-Apr-17 23:00N 36°17' W 024°22'815.4
2018-Apr-17 22:30N 36°11' W 024°29'815.4
2018-Apr-17 22:00N 36°06' W 024°36'815.4
2018-Apr-17 21:30N 36°01' W 024°43'815.7
2018-Apr-17 21:00N 35°55' W 024°50'815.7
2018-Apr-17 20:30N 35°50' W 024°57'815.7
2018-Apr-17 20:00N 35°45' W 025°04'816.1
2018-Apr-17 19:30N 35°39' W 025°11'816.2
2018-Apr-17 19:00N 35°33' W 025°18'  

Dump ship's entire track history